KCHA/CHA METAR and TAF weather

Enter ICAO airport designator
Station Type Date Time Source
KCHA METAR 2020/07/06 06:53 UTC NOAA

KCHA 060653Z 00000KT 10SM CLR 24/22 A2996 RMK AO2 SLP137 T02390217


Station Type Date Time Source
KCHA Decoded METAR 2020/07/06 06:53 UTC NOAA

LOVELL FIELD, TN, United States (KCHA) 35-02N 085-12W 210M
Jul 06, 2020 - 02:53 AM EDT / 2020.07.06 0653 UTC
Wind: Calm:0
Visibility: 10 mile(s):0
Sky conditions: clear
Temperature: 75.0 F (23.9 C)
Dew Point: 71.1 F (21.7 C)
Relative Humidity: 87%
Pressure (altimeter): 29.96 in. Hg (1014 hPa)
ob: KCHA 060653Z 00000KT 10SM CLR 24/22 A2996 RMK AO2 SLP137 T02390217
cycle: 7

Station Type Date Time Source
KCHA TAF 2020/07/06 06:36 UTC NOAA

TAF KCHA 060533Z 0606/0706 04003KT P6SM FEW070
FM061100 00000KT 5SM BR SCT250
FM061300 VRB02KT P6SM SCT250
FM061600 08006KT P6SM SCT050 BKN200 PROB30 0620/0624 4SM TSRA BR OVC035CB
FM070000 VRB03KT P6SM SCT050 BKN100 PROB30 0700/0704 4SM TSRA BR OVC035CB

Example: see airport list